createdAt,value
2018-04-25T00:01:49.525Z,98559.63
2018-04-25T00:04:19.087Z,98552.75
2018-04-25T00:06:48.448Z,98550.13
2018-04-25T00:09:18.211Z,98547.06
2018-04-25T00:11:46.557Z,98550.08
2018-04-25T00:14:15.149Z,98540.82
2018-04-25T00:16:45.085Z,98536.19
2018-04-25T00:19:15.876Z,98534.80
2018-04-25T00:21:45.768Z,98534.14
2018-04-25T00:24:14.834Z,98527.69
2018-04-25T00:26:44.412Z,98520.11
2018-04-25T00:29:14.195Z,98516.48
2018-04-25T00:31:43.404Z,98519.62
2018-04-25T00:34:11.904Z,98518.16
2018-04-25T00:36:40.999Z,98519.14
2018-04-25T00:39:09.546Z,98519.27
2018-04-25T00:41:39.707Z,98526.11
2018-04-25T00:44:08.408Z,98521.11
2018-04-25T00:46:36.729Z,98523.20
2018-04-25T00:49:06.148Z,98525.73
2018-04-25T00:51:34.858Z,98525.52
2018-04-25T00:54:04.196Z,98520.02
2018-04-25T00:56:32.549Z,98518.83
2018-04-25T00:59:02.336Z,98507.72
2018-04-25T01:01:30.899Z,98515.84
2018-04-25T01:04:00.115Z,98512.63
2018-04-25T01:06:31.057Z,98509.27
2018-04-25T01:08:59.965Z,98505.20
2018-04-25T01:11:29.472Z,98498.30
2018-04-25T01:13:58.062Z,98500.58
2018-04-25T01:16:26.505Z,98497.53
2018-04-25T01:18:55.753Z,98497.49
2018-04-25T01:21:24.995Z,98488.44
2018-04-25T01:23:54.168Z,98493.88
2018-04-25T01:26:23.372Z,98491.64
2018-04-25T01:28:56.654Z,98481.70
2018-04-25T01:31:37.314Z,98483.94
2018-04-25T01:34:16.767Z,98482.22
2018-04-25T01:36:59.725Z,98479.41
2018-04-25T01:40:03.598Z,98476.64
2018-04-25T01:45:37.573Z,98471.66
2018-04-25T01:51:22.648Z,98465.26
2018-04-25T01:54:08.752Z,98468.89
2018-04-25T01:56:55.081Z,98471.27
2018-04-25T01:59:44.715Z,98469.66
2018-04-25T02:02:19.050Z,98461.04
2018-04-25T02:04:47.955Z,98457.36
2018-04-25T02:07:18.764Z,98454.71
2018-04-25T02:09:47.805Z,98456.88
2018-04-25T02:12:17.095Z,98448.53
2018-04-25T02:14:45.698Z,98453.93
2018-04-25T02:17:14.944Z,98450.34
2018-04-25T02:19:44.353Z,98450.23
2018-04-25T02:22:12.669Z,98445.91
2018-04-25T02:24:41.552Z,98438.77
2018-04-25T02:27:09.946Z,98442.06
2018-04-25T02:29:38.371Z,98435.12
2018-04-25T02:32:06.737Z,98433.05
2018-04-25T02:34:36.519Z,98434.84
2018-04-25T02:37:05.097Z,98427.14
2018-04-25T02:39:33.452Z,98426.16
2018-04-25T02:42:02.347Z,98418.97
2018-04-25T02:44:32.778Z,98422.61
2018-04-25T02:47:02.308Z,98422.13
2018-04-25T02:49:32.331Z,98426.41
2018-04-25T02:52:02.555Z,98430.44
2018-04-25T02:54:30.926Z,98435.22
2018-04-25T02:57:00.224Z,98424.72
2018-04-25T02:59:29.348Z,98426.82
2018-04-25T03:04:32.232Z,98429.38
2018-04-25T03:07:01.620Z,98435.91
2018-04-25T03:09:30.885Z,98431.08
2018-04-25T03:12:02.950Z,98424.09
2018-04-25T03:14:32.557Z,98426.05
2018-04-25T03:17:01.869Z,98424.78
2018-04-25T03:19:31.742Z,98427.87
2018-04-25T03:22:01.208Z,98430.03
2018-04-25T03:24:30.484Z,98434.06
2018-04-25T03:26:59.575Z,98425.44
2018-04-25T03:29:29.361Z,98418.42
2018-04-25T03:31:58.032Z,98428.12
2018-04-25T03:34:26.994Z,98416.05
2018-04-25T03:36:55.305Z,98422.47
2018-04-25T03:39:23.753Z,98422.67
2018-04-25T03:41:52.572Z,98418.33
2018-04-25T03:44:20.946Z,98405.34
2018-04-25T03:46:50.832Z,98408.75
2018-04-25T03:49:21.136Z,98410.98
2018-04-25T03:51:49.915Z,98417.36
2018-04-25T03:54:18.281Z,98410.84
2018-04-25T03:56:48.334Z,98409.09
2018-04-25T03:59:18.312Z,98404.64
2018-04-25T04:01:47.481Z,98403.23
2018-04-25T04:04:15.950Z,98407.58
2018-04-25T04:06:44.783Z,98400.44
2018-04-25T04:09:14.133Z,98406.13
2018-04-25T04:11:42.487Z,98399.22
2018-04-25T04:14:12.158Z,98399.42
2018-04-25T04:16:42.699Z,98398.88
2018-04-25T04:19:13.500Z,98403.62
2018-04-25T04:21:41.909Z,98397.84
2018-04-25T04:24:10.853Z,98396.00
2018-04-25T04:26:40.502Z,98397.00
2018-04-25T04:29:08.862Z,98396.74
2018-04-25T04:31:39.225Z,98392.89
2018-04-25T04:34:10.079Z,98394.95
2018-04-25T04:36:38.450Z,98389.88
2018-04-25T04:39:07.275Z,98391.64
2018-04-25T04:41:35.711Z,98383.61
2018-04-25T04:44:05.940Z,98378.41
2018-04-25T04:46:34.548Z,98385.00
2018-04-25T04:49:02.965Z,98386.61
2018-04-25T04:51:32.222Z,98380.13
2018-04-25T04:54:01.191Z,98387.54
2018-04-25T04:56:30.740Z,98387.03
2018-04-25T04:59:00.647Z,98394.00
2018-04-25T05:01:31.323Z,98394.03
2018-04-25T05:03:59.674Z,98393.67
2018-04-25T05:06:28.814Z,98395.82
2018-04-25T05:08:57.165Z,98385.63
2018-04-25T05:11:26.372Z,98388.10
2018-04-25T05:13:55.810Z,98387.55
2018-04-25T05:16:25.806Z,98392.78
2018-04-25T05:18:56.543Z,98388.95
2018-04-25T05:21:26.562Z,98386.83
2018-04-25T05:23:55.714Z,98389.22
2018-04-25T05:26:24.126Z,98386.19
2018-04-25T05:28:53.525Z,98382.20
2018-04-25T05:31:22.746Z,98389.41
2018-04-25T05:33:51.815Z,98385.08
2018-04-25T05:36:21.379Z,98391.59
2018-04-25T05:38:51.703Z,98391.23
2018-04-25T05:41:23.052Z,98402.55
2018-04-25T05:43:52.413Z,98398.55
2018-04-25T05:46:23.505Z,98401.06
2018-04-25T05:48:53.499Z,98406.12
2018-04-25T05:51:22.917Z,98401.95
2018-04-25T05:53:52.661Z,98397.32
2018-04-25T05:56:23.050Z,98407.80
2018-04-25T05:58:52.309Z,98404.01
2018-04-25T06:01:21.605Z,98410.52
2018-04-25T06:03:53.065Z,98408.14
2018-04-25T06:06:22.617Z,98412.45
2018-04-25T06:08:50.952Z,98405.55
2018-04-25T06:11:19.343Z,98412.20
2018-04-25T06:13:47.989Z,98414.38
2018-04-25T06:16:16.878Z,98413.47
2018-04-25T06:18:46.079Z,98409.83
2018-04-25T06:21:15.316Z,98417.05
2018-04-25T06:23:44.498Z,98416.33
2018-04-25T06:26:13.234Z,98413.52
2018-04-25T06:28:41.820Z,98409.83
2018-04-25T06:31:11.381Z,98414.33
2018-04-25T06:33:40.839Z,98416.69
2018-04-25T06:36:10.020Z,98421.34
2018-04-25T06:38:38.396Z,98418.88
2018-04-25T06:41:07.688Z,98414.84
2018-04-25T06:43:36.052Z,98417.36
2018-04-25T06:46:05.259Z,98419.73
2018-04-25T06:48:35.656Z,98426.09
2018-04-25T06:51:04.829Z,98424.83
2018-04-25T06:53:33.173Z,98430.33
2018-04-25T06:56:03.918Z,98433.88
2018-04-25T06:58:32.504Z,98432.34
2018-04-25T07:01:01.900Z,98427.24
2018-04-25T07:03:31.485Z,98430.75
2018-04-25T07:06:00.677Z,98435.39
2018-04-25T07:08:29.036Z,98430.02
2018-04-25T07:10:58.816Z,98434.81
2018-04-25T07:13:28.933Z,98425.41
2018-04-25T07:15:57.145Z,98436.34
2018-04-25T07:18:26.499Z,98439.50
2018-04-25T07:20:55.317Z,98437.63
2018-04-25T07:23:24.141Z,98432.52
2018-04-25T07:25:53.258Z,98440.78
2018-04-25T07:28:22.366Z,98433.75
2018-04-25T07:30:51.727Z,98444.31
2018-04-25T07:33:22.653Z,98441.08
2018-04-25T07:35:50.988Z,98441.59
2018-04-25T07:38:20.548Z,98445.03
2018-04-25T07:40:49.759Z,98445.27
2018-04-25T07:43:19.862Z,98447.25
2018-04-25T07:45:49.090Z,98449.62
2018-04-25T07:48:18.281Z,98441.92
2018-04-25T07:50:47.836Z,98439.08
2018-04-25T07:53:16.257Z,98440.66
2018-04-25T07:55:46.283Z,98438.22
2018-04-25T07:58:15.863Z,98436.64
2018-04-25T08:00:46.015Z,98447.53
2018-04-25T08:03:15.439Z,98440.75
2018-04-25T08:05:45.647Z,98439.52
2018-04-25T08:08:14.033Z,98436.72
2018-04-25T08:10:42.393Z,98432.64
2018-04-25T08:13:23.214Z,98435.19
2018-04-25T08:16:03.670Z,98444.16
2018-04-25T08:18:45.394Z,98442.94
2018-04-25T08:21:27.320Z,98449.70
2018-04-25T08:23:58.317Z,98453.77
2018-04-25T08:26:27.478Z,98462.66
2018-04-25T08:28:57.614Z,98452.88
2018-04-25T08:31:27.731Z,98446.24
2018-04-25T08:33:57.882Z,98453.46
2018-04-25T08:36:27.283Z,98464.68
2018-04-25T08:38:56.433Z,98463.47
2018-04-25T08:41:25.695Z,98465.66
2018-04-25T08:43:54.954Z,98459.32
2018-04-25T08:46:24.087Z,98477.05
2018-04-25T08:48:53.514Z,98464.02
2018-04-25T08:51:22.600Z,98468.42
2018-04-25T08:53:52.447Z,98474.95
2018-04-25T08:56:22.460Z,98481.41
2018-04-25T08:58:52.028Z,98490.97
2018-04-25T09:01:21.464Z,98481.36
2018-04-25T09:03:51.519Z,98485.33
2018-04-25T09:06:20.201Z,98481.61
2018-04-25T09:08:48.616Z,98489.75
2018-04-25T09:11:17.016Z,98488.39
2018-04-25T09:13:45.361Z,98503.88
2018-04-25T09:16:14.680Z,98516.35
2018-04-25T09:18:44.732Z,98509.45
2018-04-25T09:21:13.942Z,98515.86
2018-04-25T09:23:42.263Z,98519.02
2018-04-25T09:26:11.583Z,98521.72
2018-04-25T09:28:40.871Z,98527.88
2018-04-25T09:31:10.461Z,98520.77
2018-04-25T09:33:41.040Z,98526.03
2018-04-25T09:36:09.796Z,98522.75
2018-04-25T09:38:40.075Z,98522.75
2018-04-25T09:41:08.847Z,98522.75
2018-04-25T09:43:38.160Z,98525.55
2018-04-25T09:46:07.315Z,98526.88
2018-04-25T09:48:36.391Z,98521.54
2018-04-25T09:51:05.407Z,98521.96
2018-04-25T09:53:34.126Z,98524.75
2018-04-25T09:56:03.894Z,98521.38
2018-04-25T09:58:33.439Z,98511.84
2018-04-25T10:01:06.591Z,98504.45
2018-04-25T10:03:42.866Z,98507.11
2018-04-25T10:06:13.182Z,98506.97
2018-04-25T10:08:42.936Z,98510.35
2018-04-25T10:11:11.470Z,98505.78
2018-04-25T10:13:40.872Z,98508.80
2018-04-25T10:16:10.036Z,98504.25
2018-04-25T10:18:38.807Z,98519.70
2018-04-25T10:21:07.177Z,98520.88
2018-04-25T10:23:35.509Z,98513.52
2018-04-25T10:26:05.645Z,98521.53
2018-04-25T10:28:35.896Z,98517.55
2018-04-25T10:31:04.529Z,98515.92
2018-04-25T10:33:33.439Z,98526.80
2018-04-25T10:36:02.115Z,98516.55
2018-04-25T10:38:31.195Z,98519.12
2018-04-25T10:40:59.968Z,98507.72
2018-04-25T10:43:30.004Z,98514.22
2018-04-25T10:45:59.121Z,98516.68
2018-04-25T10:48:29.317Z,98523.13
2018-04-25T10:50:57.920Z,98515.77
2018-04-25T10:53:26.753Z,98518.31
2018-04-25T10:55:55.721Z,98517.84
2018-04-25T10:58:25.664Z,98514.56
2018-04-25T11:00:54.695Z,98519.27
2018-04-25T11:03:25.085Z,98521.73
2018-04-25T11:05:54.288Z,98528.43
2018-04-25T11:08:23.845Z,98527.19
2018-04-25T11:10:54.087Z,98542.34
2018-04-25T11:13:23.116Z,98551.18
2018-04-25T11:15:51.456Z,98538.15
2018-04-25T11:18:20.763Z,98549.08
2018-04-25T11:20:49.659Z,98554.02
2018-04-25T11:23:19.084Z,98552.80
2018-04-25T11:25:47.925Z,98554.60
2018-04-25T11:28:17.103Z,98557.91
2018-04-25T11:30:46.992Z,98560.41
2018-04-25T11:33:15.341Z,98557.25
2018-04-25T11:35:45.563Z,98563.62
2018-04-25T11:38:15.262Z,98574.09
2018-04-25T11:40:44.401Z,98575.45
2018-04-25T11:43:13.515Z,98566.70
2018-04-25T11:45:42.989Z,98565.20
2018-04-25T11:48:12.813Z,98570.97
2018-04-25T11:50:42.985Z,98571.78
2018-04-25T11:53:11.546Z,98579.50
2018-04-25T11:55:40.682Z,98590.41
2018-04-25T11:58:10.005Z,98614.52
2018-04-25T12:00:38.943Z,98603.55
2018-04-25T12:03:08.331Z,98603.59
2018-04-25T12:05:38.567Z,98598.09
2018-04-25T12:08:07.781Z,98607.45
2018-04-25T12:10:37.918Z,98611.70
2018-04-25T12:13:06.601Z,98620.69
2018-04-25T12:15:36.364Z,98623.91
2018-04-25T12:18:05.614Z,98626.91
2018-04-25T12:20:34.052Z,98614.67
2018-04-25T12:23:05.901Z,98606.34
2018-04-25T12:25:35.614Z,98617.25
2018-04-25T12:28:04.453Z,98611.92
2018-04-25T12:30:33.561Z,98621.13
2018-04-25T12:33:01.934Z,98624.67
2018-04-25T12:35:31.685Z,98620.50
2018-04-25T12:38:00.754Z,98621.17
2018-04-25T12:40:29.157Z,98620.55
2018-04-25T12:42:59.203Z,98619.91
2018-04-25T12:45:27.998Z,98608.59
2018-04-25T12:48:03.874Z,98612.71
2018-04-25T12:50:33.875Z,98606.49
2018-04-25T12:53:02.593Z,98600.97
2018-04-25T12:55:33.232Z,98602.11
2018-04-25T12:58:01.972Z,98596.81
2018-04-25T13:00:30.627Z,98585.27
2018-04-25T13:03:00.178Z,98587.20
2018-04-25T13:05:28.935Z,98580.58
2018-04-25T13:07:59.809Z,98580.44
2018-04-25T13:10:29.601Z,98589.69
2018-04-25T13:12:59.643Z,98594.95
2018-04-25T13:15:27.975Z,98588.42
2018-04-25T13:17:56.421Z,98598.09
2018-04-25T13:20:25.261Z,98589.47
2018-04-25T13:22:53.679Z,98576.52
2018-04-25T13:25:22.019Z,98582.47
2018-04-25T13:27:51.155Z,98592.27
2018-04-25T13:30:21.087Z,98592.65
2018-04-25T13:32:50.519Z,98601.23
2018-04-25T13:35:21.122Z,98586.98
2018-04-25T13:37:49.503Z,98587.73
2018-04-25T13:40:18.166Z,98590.72
2018-04-25T13:42:47.064Z,98594.57
2018-04-25T13:45:16.956Z,98592.66
2018-04-25T13:47:46.835Z,98604.67
2018-04-25T13:50:15.221Z,98601.44
2018-04-25T13:52:44.391Z,98589.56
2018-04-25T13:55:12.771Z,98583.95
2018-04-25T13:57:41.336Z,98583.05
2018-04-25T14:00:09.755Z,98577.33
2018-04-25T14:02:40.140Z,98579.27
2018-04-25T14:05:10.167Z,98569.52
2018-04-25T14:07:39.719Z,98573.58
2018-04-25T14:10:08.124Z,98572.09
2018-04-25T14:12:36.501Z,98573.73
2018-04-25T14:15:05.049Z,98573.05
2018-04-25T14:17:35.595Z,98580.45
2018-04-25T14:20:06.061Z,98584.28
2018-04-25T14:22:34.697Z,98596.63
2018-04-25T14:25:04.237Z,98597.59
2018-04-25T14:27:34.229Z,98596.90
2018-04-25T14:30:03.559Z,98593.17
2018-04-25T14:32:32.724Z,98603.55
2018-04-25T14:35:01.688Z,98604.89
2018-04-25T14:37:30.068Z,98617.79
2018-04-25T14:39:58.817Z,98591.45
2018-04-25T14:42:27.903Z,98581.47
2018-04-25T14:44:56.225Z,98590.75
2018-04-25T14:47:24.613Z,98580.67
2018-04-25T14:49:54.208Z,98576.23
2018-04-25T14:52:23.509Z,98567.69
2018-04-25T14:54:53.573Z,98562.64
2018-04-25T14:57:21.972Z,98568.97
2018-04-25T14:59:50.288Z,98566.23
2018-04-25T15:02:19.554Z,98568.47
2018-04-25T15:04:49.797Z,98575.22
2018-04-25T15:07:18.409Z,98572.40
2018-04-25T15:09:46.750Z,98573.08
2018-04-25T15:12:15.929Z,98584.95
2018-04-25T15:14:45.801Z,98581.47
2018-04-25T15:17:15.049Z,98589.16
2018-04-25T15:19:43.542Z,98582.28
2018-04-25T15:22:12.942Z,98572.71
2018-04-25T15:24:42.468Z,98575.91
2018-04-25T15:27:11.456Z,98559.76
2018-04-25T15:29:40.879Z,98559.36
2018-04-25T15:32:10.762Z,98559.09
2018-04-25T15:34:39.088Z,98561.42
2018-04-25T15:37:09.308Z,98553.02
2018-04-25T15:39:39.608Z,98562.69
2018-04-25T15:42:07.944Z,98556.98
2018-04-25T15:44:36.935Z,98549.12
2018-04-25T15:47:06.316Z,98555.91
2018-04-25T15:49:34.803Z,98558.46
2018-04-25T15:52:03.434Z,98567.25
2018-04-25T15:54:31.790Z,98571.70
2018-04-25T15:57:01.247Z,98557.54
2018-04-25T15:59:30.532Z,98551.00
2018-04-25T16:01:59.279Z,98560.55
2018-04-25T16:04:30.406Z,98553.42
2018-04-25T16:07:00.904Z,98549.75
2018-04-25T16:09:30.192Z,98551.83
2018-04-25T16:11:58.821Z,98550.00
2018-04-25T16:14:28.996Z,98543.63
2018-04-25T16:16:58.029Z,98546.67
2018-04-25T16:19:26.991Z,98546.88
2018-04-25T16:21:56.338Z,98545.63
2018-04-25T16:24:25.176Z,98545.23
2018-04-25T16:26:54.372Z,98544.08
2018-04-25T16:29:22.693Z,98552.44
2018-04-25T16:31:52.749Z,98557.02
2018-04-25T16:34:21.845Z,98548.01
2018-04-25T16:36:50.241Z,98553.44
2018-04-25T16:39:19.136Z,98553.37
2018-04-25T16:41:47.742Z,98548.48
2018-04-25T16:44:17.904Z,98557.00
2018-04-25T16:46:46.238Z,98548.39
2018-04-25T16:49:14.630Z,98548.22
2018-04-25T16:51:45.033Z,98554.31
2018-04-25T16:54:15.377Z,98525.89
2018-04-25T16:56:43.944Z,98551.08
2018-04-25T16:59:12.356Z,98539.29
2018-04-25T17:01:40.683Z,98539.34
2018-04-25T17:04:11.381Z,98546.40
2018-04-25T17:06:40.579Z,98541.89
2018-04-25T17:09:09.347Z,98543.14
2018-04-25T17:11:39.330Z,98543.64
2018-04-25T17:14:08.698Z,98555.40
2018-04-25T17:16:40.162Z,98552.95
2018-04-25T17:19:08.568Z,98551.73
2018-04-25T17:21:36.930Z,98547.48
2018-04-25T17:24:05.370Z,98547.08
2018-04-25T17:26:34.705Z,98539.53
2018-04-25T17:29:04.707Z,98541.67
2018-04-25T17:31:33.765Z,98537.33
2018-04-25T17:34:04.636Z,98542.78
2018-04-25T17:36:34.372Z,98539.24
2018-04-25T17:39:03.792Z,98545.87
2018-04-25T17:41:33.487Z,98550.22
2018-04-25T17:44:02.328Z,98548.59
2018-04-25T17:46:32.029Z,98551.18
2018-04-25T17:49:01.116Z,98556.60
2018-04-25T17:51:29.932Z,98559.44
2018-04-25T17:53:59.438Z,98559.25
2018-04-25T17:56:28.711Z,98551.52
2018-04-25T17:58:57.970Z,98558.42
2018-04-25T18:01:27.069Z,98562.33
2018-04-25T18:03:56.337Z,98575.19
2018-04-25T18:06:25.447Z,98577.85
2018-04-25T18:08:54.570Z,98590.18
2018-04-25T18:11:23.380Z,98589.11
2018-04-25T18:13:52.443Z,98596.81
2018-04-25T18:16:20.796Z,98600.52
2018-04-25T18:18:49.765Z,98610.44
2018-04-25T18:21:20.421Z,98617.38
2018-04-25T18:23:51.985Z,98615.27
2018-04-25T18:26:23.133Z,98633.05
2018-04-25T18:28:51.759Z,98628.47
2018-04-25T18:31:21.387Z,98629.89
2018-04-25T18:33:50.007Z,98632.75
2018-04-25T18:36:19.630Z,98636.00
2018-04-25T18:38:47.976Z,98635.38
2018-04-25T18:41:17.128Z,98634.65
2018-04-25T18:43:46.064Z,98632.48
2018-04-25T18:46:14.378Z,98635.43
2018-04-25T18:48:43.782Z,98640.21
2018-04-25T18:51:12.180Z,98636.47
2018-04-25T18:53:40.830Z,98645.59
2018-04-25T18:56:10.299Z,98648.28
2018-04-25T18:58:38.733Z,98648.88
2018-04-25T19:01:08.027Z,98649.83
2018-04-25T19:03:36.666Z,98652.33
2018-04-25T19:06:05.012Z,98648.23
2018-04-25T19:08:34.095Z,98642.51
2018-04-25T19:11:03.223Z,98640.02
2018-04-25T19:13:32.641Z,98646.02
2018-04-25T19:16:00.969Z,98641.25
2018-04-25T19:18:29.367Z,98637.39
2018-04-25T19:20:58.541Z,98648.23
2018-04-25T19:23:27.453Z,98646.23
2018-04-25T19:25:58.441Z,98652.45
2018-04-25T19:28:28.330Z,98652.13
2018-04-25T19:30:58.541Z,98646.52
2018-04-25T19:33:27.949Z,98648.06
2018-04-25T19:35:56.360Z,98646.48
2018-04-25T19:38:25.536Z,98650.80
2018-04-25T19:40:54.829Z,98659.00
2018-04-25T19:43:23.253Z,98664.27
2018-04-25T19:45:53.378Z,98670.77
2018-04-25T19:48:23.791Z,98673.24
2018-04-25T19:50:52.408Z,98677.88
2018-04-25T19:53:24.435Z,98673.75
2018-04-25T19:55:53.467Z,98676.57
2018-04-25T19:58:22.218Z,98677.68
2018-04-25T20:00:52.537Z,98681.28
2018-04-25T20:03:21.429Z,98674.46
2018-04-25T20:05:50.672Z,98682.37
2018-04-25T20:08:19.088Z,98689.70
2018-04-25T20:10:48.318Z,98691.88
2018-04-25T20:13:16.749Z,98698.73
2018-04-25T20:15:45.140Z,98702.19
2018-04-25T20:18:14.649Z,98716.47
2018-04-25T20:20:45.600Z,98715.09
2018-04-25T20:23:14.672Z,98714.22
2018-04-25T20:25:42.992Z,98714.09
2018-04-25T20:28:13.274Z,98720.12
2018-04-25T20:30:42.664Z,98717.47
2018-04-25T20:33:12.010Z,98712.13
2018-04-25T20:35:40.838Z,98709.84
2018-04-25T20:38:10.519Z,98720.96
2018-04-25T20:40:38.970Z,98729.58
2018-04-25T20:43:07.677Z,98721.17
2018-04-25T20:45:36.816Z,98715.17
2018-04-25T20:48:05.595Z,98715.41
2018-04-25T20:50:35.468Z,98719.27
2018-04-25T20:53:04.773Z,98717.05
2018-04-25T20:55:33.980Z,98722.33
2018-04-25T20:58:03.117Z,98725.05
2018-04-25T21:00:32.845Z,98730.24
2018-04-25T21:03:01.413Z,98727.70
2018-04-25T21:05:31.883Z,98734.80
2018-04-25T21:08:01.651Z,98739.48
2018-04-25T21:10:30.813Z,98741.14
2018-04-25T21:12:59.172Z,98742.11
2018-04-25T21:15:29.544Z,98741.08
2018-04-25T21:17:57.903Z,98744.78
2018-04-25T21:20:27.744Z,98741.55
2018-04-25T21:22:57.221Z,98740.23
2018-04-25T21:25:25.574Z,98737.91
2018-04-25T21:27:53.884Z,98734.17
2018-04-25T21:30:22.503Z,98731.19
2018-04-25T21:32:52.837Z,98737.09
2018-04-25T21:35:22.219Z,98733.45
2018-04-25T21:37:50.667Z,98731.06
2018-04-25T21:40:18.999Z,98740.59
2018-04-25T21:42:48.607Z,98743.45
2018-04-25T21:45:17.184Z,98742.31
2018-04-25T21:47:46.344Z,98744.39
2018-04-25T21:50:16.293Z,98742.22
2018-04-25T21:52:48.125Z,98745.64
2018-04-25T21:55:16.832Z,98751.73
2018-04-25T21:57:45.165Z,98753.81
2018-04-25T22:00:13.769Z,98757.52
2018-04-25T22:02:42.198Z,98759.45
2018-04-25T22:05:10.591Z,98759.00
2018-04-25T22:07:39.573Z,98757.72
2018-04-25T22:10:08.451Z,98761.58
2018-04-25T22:12:38.171Z,98757.18
2018-04-25T22:15:06.528Z,98757.41
2018-04-25T22:17:35.223Z,98755.55
2018-04-25T22:20:04.414Z,98756.13
2018-04-25T22:22:34.337Z,98759.73
2018-04-25T22:25:02.678Z,98761.88
2018-04-25T22:27:32.028Z,98763.37
2018-04-25T22:30:00.422Z,98766.39
2018-04-25T22:32:29.736Z,98770.52
2018-04-25T22:34:58.422Z,98769.16
2018-04-25T22:37:28.078Z,98770.98
2018-04-25T22:39:57.735Z,98770.55
2018-04-25T22:42:26.707Z,98775.17
2018-04-25T22:44:56.181Z,98775.20
2018-04-25T22:47:26.071Z,98785.27
2018-04-25T22:49:54.429Z,98794.41
2018-04-25T22:52:23.045Z,98796.59
2018-04-25T22:54:52.170Z,98797.59
2018-04-25T22:57:22.741Z,98798.09
2018-04-25T22:59:51.133Z,98795.35
2018-04-25T23:02:19.735Z,98800.40
2018-04-25T23:04:48.601Z,98796.57
2018-04-25T23:07:17.975Z,98791.86
2018-04-25T23:09:46.358Z,98797.89
2018-04-25T23:12:15.797Z,98795.63
2018-04-25T23:14:44.471Z,98800.19
2018-04-25T23:17:12.909Z,98801.70
2018-04-25T23:19:41.267Z,98804.20
2018-04-25T23:22:09.603Z,98803.63
2018-04-25T23:24:38.968Z,98804.47
2018-04-25T23:27:08.004Z,98802.19
2018-04-25T23:29:36.423Z,98804.59
2018-04-25T23:32:05.691Z,98805.41
2018-04-25T23:34:34.585Z,98809.25
2018-04-25T23:37:04.286Z,98801.15
2018-04-25T23:39:33.559Z,98801.08
2018-04-25T23:42:01.903Z,98804.16
2018-04-25T23:44:30.952Z,98801.18
2018-04-25T23:46:59.947Z,98807.44
2018-04-25T23:49:31.517Z,98818.13
2018-04-25T23:52:00.696Z,98813.41
2018-04-25T23:54:29.053Z,98813.72
2018-04-25T23:56:59.659Z,98804.73
2018-04-25T23:59:28.038Z,98809.48
